createdAt,value
2022-11-22T00:00:12.377Z,18.03
2022-11-22T00:00:55.185Z,18.04
2022-11-22T00:02:07.879Z,18.04
2022-11-22T00:03:21.364Z,18.03
2022-11-22T00:04:24.078Z,18.04
2022-11-22T00:05:37.396Z,18.03
2022-11-22T00:06:50.065Z,18.04
2022-11-22T00:08:03.365Z,18.06
2022-11-22T00:09:06.055Z,18.06
2022-11-22T00:10:19.380Z,18.04
2022-11-22T00:11:31.997Z,18.06
2022-11-22T00:12:35.391Z,18.03
2022-11-22T00:13:48.035Z,18.03
2022-11-22T00:15:01.395Z,18.03
2022-11-22T00:16:04.263Z,18.04
2022-11-22T00:17:38.869Z,18.04
2022-11-22T00:18:31.615Z,18.02
2022-11-22T00:19:34.300Z,18.04
2022-11-22T00:20:47.915Z,18.03
2022-11-22T00:22:00.546Z,18.03
2022-11-22T00:23:13.862Z,18.04
2022-11-22T00:24:16.536Z,18.06
2022-11-22T00:25:29.902Z,18.04
2022-11-22T00:26:42.542Z,18.07
2022-11-22T00:27:45.903Z,18.07
2022-11-22T00:28:58.547Z,18.04
2022-11-22T00:30:11.896Z,18.04
2022-11-22T00:31:14.600Z,18.04
2022-11-22T00:32:27.863Z,18.04
2022-11-22T00:33:40.485Z,18.04
2022-11-22T00:34:54.379Z,18.04
2022-11-22T00:35:57.039Z,18.03
2022-11-22T00:37:10.370Z,18.02
2022-11-22T00:38:22.983Z,17.99
2022-11-22T00:39:26.436Z,18.02
2022-11-22T00:40:39.122Z,18.02
2022-11-22T00:41:52.402Z,18.0
2022-11-22T00:42:55.064Z,17.99
2022-11-22T00:44:08.369Z,17.97
2022-11-22T00:45:20.982Z,17.96
2022-11-22T00:46:34.358Z,17.97
2022-11-22T00:47:37.072Z,17.97
2022-11-22T00:48:50.381Z,17.96
2022-11-22T00:50:02.971Z,17.97
2022-11-22T00:51:06.427Z,17.93
2022-11-22T00:52:19.042Z,17.96
2022-11-22T00:53:52.404Z,17.99
2022-11-22T00:54:47.715Z,17.96
2022-11-22T00:55:54.246Z,17.99
2022-11-22T00:56:56.957Z,17.96
2022-11-22T00:58:10.390Z,17.96
2022-11-22T00:59:22.997Z,17.97
2022-11-22T01:00:36.448Z,18.0
2022-11-22T01:01:39.279Z,18.0
2022-11-22T01:02:52.913Z,17.99
2022-11-22T01:04:05.544Z,17.99
2022-11-22T01:05:08.884Z,17.96
2022-11-22T01:06:31.464Z,17.96
2022-11-22T01:07:34.984Z,17.97
2022-11-22T01:08:37.801Z,17.97
2022-11-22T01:10:01.393Z,17.97
2022-11-22T01:11:04.068Z,17.97
2022-11-22T01:12:07.423Z,17.99
2022-11-22T01:13:20.014Z,17.97
2022-11-22T01:14:33.392Z,17.99
2022-11-22T01:15:46.024Z,17.99
2022-11-22T01:16:49.405Z,17.99
2022-11-22T01:18:02.065Z,17.99
2022-11-22T01:19:15.430Z,17.97
2022-11-22T01:20:18.121Z,17.96
2022-11-22T01:21:31.374Z,17.96
2022-11-22T01:22:43.986Z,17.97
2022-11-22T01:23:57.417Z,17.97
2022-11-22T01:25:00.212Z,17.96
2022-11-22T01:26:13.898Z,17.94
2022-11-22T01:27:26.515Z,17.93
2022-11-22T01:28:29.864Z,17.94
2022-11-22T01:29:42.492Z,17.94
2022-11-22T01:30:55.873Z,17.93
2022-11-22T01:31:58.545Z,17.93
2022-11-22T01:33:11.938Z,17.94
2022-11-22T01:34:24.543Z,17.9
2022-11-22T01:35:37.886Z,17.92
2022-11-22T01:36:40.580Z,17.93
2022-11-22T01:37:53.903Z,17.9
2022-11-22T01:39:06.513Z,17.9
2022-11-22T01:40:09.907Z,17.92
2022-11-22T01:41:22.543Z,17.93
2022-11-22T01:42:35.917Z,17.92
2022-11-22T01:43:38.593Z,17.92
2022-11-22T01:44:51.872Z,17.92
2022-11-22T01:46:04.519Z,17.9
2022-11-22T01:47:17.908Z,17.93
2022-11-22T01:48:20.382Z,17.9
2022-11-22T01:49:33.920Z,17.89
2022-11-22T01:50:46.565Z,17.89
2022-11-22T01:51:49.902Z,17.92
2022-11-22T01:53:02.516Z,17.9
2022-11-22T01:54:15.910Z,17.9
2022-11-22T01:55:18.623Z,17.9
2022-11-22T01:56:31.879Z,17.89
2022-11-22T01:57:44.506Z,17.92
2022-11-22T01:58:58.394Z,17.9
2022-11-22T02:00:01.064Z,17.89
2022-11-22T02:01:14.447Z,17.89
2022-11-22T02:02:27.179Z,17.89
2022-11-22T02:03:30.884Z,17.89
2022-11-22T02:04:43.511Z,17.87
2022-11-22T02:05:56.920Z,17.87
2022-11-22T02:06:59.631Z,17.86
2022-11-22T02:08:12.918Z,17.87
2022-11-22T02:09:25.602Z,17.89
2022-11-22T02:10:38.892Z,17.86
2022-11-22T02:11:41.610Z,17.86
2022-11-22T02:12:54.902Z,17.86
2022-11-22T02:14:07.547Z,17.86
2022-11-22T02:15:10.930Z,17.87
2022-11-22T02:16:23.547Z,17.86
2022-11-22T02:17:36.928Z,17.85
2022-11-22T02:18:39.607Z,17.86
2022-11-22T02:19:52.940Z,17.89
2022-11-22T02:21:05.574Z,17.86
2022-11-22T02:22:18.915Z,17.87
2022-11-22T02:23:21.622Z,17.87
2022-11-22T02:24:34.930Z,17.86
2022-11-22T02:25:47.535Z,17.87
2022-11-22T02:26:50.900Z,17.85
2022-11-22T02:28:03.545Z,17.86
2022-11-22T02:29:27.072Z,17.85
2022-11-22T02:30:29.995Z,17.87
2022-11-22T02:31:43.430Z,17.83
2022-11-22T02:32:46.130Z,17.87
2022-11-22T02:34:01.787Z,17.89
2022-11-22T02:35:04.758Z,17.87
2022-11-22T02:36:18.435Z,17.89
2022-11-22T02:37:21.158Z,17.89
2022-11-22T02:38:34.897Z,17.89
2022-11-22T02:39:47.576Z,17.9
2022-11-22T02:41:00.898Z,17.87
2022-11-22T02:42:03.562Z,17.9
2022-11-22T02:43:16.942Z,17.89
2022-11-22T02:44:29.565Z,17.87
2022-11-22T02:45:32.921Z,17.89
2022-11-22T02:46:45.551Z,17.87
2022-11-22T02:47:58.944Z,17.87
2022-11-22T02:49:11.589Z,17.86
2022-11-22T02:50:14.912Z,17.86
2022-11-22T02:52:54.874Z,17.85
2022-11-22T02:53:47.609Z,17.86
2022-11-22T02:55:01.022Z,17.85
2022-11-22T02:56:03.698Z,17.85
2022-11-22T02:57:16.982Z,17.85
2022-11-22T02:58:29.623Z,17.86
2022-11-22T02:59:42.965Z,17.85
2022-11-22T03:00:45.759Z,17.85
2022-11-22T03:02:03.195Z,17.82
2022-11-22T03:03:06.375Z,17.83
2022-11-22T03:04:19.937Z,17.83
2022-11-22T03:05:32.542Z,17.85
2022-11-22T03:06:35.971Z,17.83
2022-11-22T03:07:48.674Z,17.83
2022-11-22T03:09:02.472Z,17.85
2022-11-22T03:10:05.156Z,17.82
2022-11-22T03:11:18.466Z,17.83
2022-11-22T03:12:31.092Z,17.8
2022-11-22T03:13:34.463Z,17.83
2022-11-22T03:14:47.083Z,17.82
2022-11-22T03:16:00.472Z,17.82
2022-11-22T03:17:03.133Z,17.85
2022-11-22T03:18:16.460Z,17.82
2022-11-22T03:19:29.377Z,17.82
2022-11-22T03:20:42.992Z,17.8
2022-11-22T03:21:45.655Z,17.8
2022-11-22T03:22:58.969Z,17.8
2022-11-22T03:24:11.598Z,17.79
2022-11-22T03:25:14.973Z,17.8
2022-11-22T03:26:27.601Z,17.8
2022-11-22T03:27:40.982Z,17.78
2022-11-22T03:28:43.653Z,17.8
2022-11-22T03:29:56.988Z,17.79
2022-11-22T03:31:09.663Z,17.8
2022-11-22T03:32:22.956Z,17.8
2022-11-22T03:33:25.651Z,17.79
2022-11-22T03:34:38.993Z,17.78
2022-11-22T03:35:51.618Z,17.78
2022-11-22T03:36:54.984Z,17.79
2022-11-22T03:38:07.387Z,17.79
2022-11-22T03:39:20.461Z,17.78
2022-11-22T03:40:33.092Z,17.78
2022-11-22T03:41:36.470Z,17.79
2022-11-22T03:42:49.102Z,17.76
2022-11-22T03:44:12.506Z,17.76
2022-11-22T03:45:05.265Z,17.79
2022-11-22T03:46:18.949Z,17.79
2022-11-22T03:47:31.610Z,17.78
2022-11-22T03:48:34.964Z,17.8
2022-11-22T03:49:47.619Z,17.76
2022-11-22T03:51:00.981Z,17.79
2022-11-22T03:52:13.643Z,17.79
2022-11-22T03:53:16.989Z,17.79
2022-11-22T03:54:29.646Z,17.78
2022-11-22T03:55:42.997Z,17.76
2022-11-22T03:56:45.793Z,17.79
2022-11-22T03:57:59.467Z,17.78
2022-11-22T03:59:12.216Z,17.79
2022-11-22T04:00:15.960Z,17.76
2022-11-22T04:01:28.719Z,17.8
2022-11-22T04:02:42.498Z,17.79
2022-11-22T04:03:45.224Z,17.79
2022-11-22T04:04:58.483Z,17.76
2022-11-22T04:06:11.136Z,17.78
2022-11-22T04:07:24.480Z,17.78
2022-11-22T04:08:27.324Z,17.78
2022-11-22T04:09:40.957Z,17.78
2022-11-22T04:10:53.650Z,17.79
2022-11-22T04:11:56.962Z,17.78
2022-11-22T04:13:09.644Z,17.79
2022-11-22T04:14:23.054Z,17.75
2022-11-22T04:15:25.794Z,17.78
2022-11-22T04:16:39.489Z,17.75
2022-11-22T04:17:52.147Z,17.75
2022-11-22T04:19:05.508Z,17.75
2022-11-22T04:20:08.255Z,17.76
2022-11-22T04:21:21.512Z,17.72
2022-11-22T04:22:34.176Z,17.75
2022-11-22T04:23:37.972Z,17.76
2022-11-22T04:24:50.641Z,17.76
2022-11-22T04:26:04.002Z,17.73
2022-11-22T04:27:06.735Z,17.75
2022-11-22T04:28:20.024Z,17.76
2022-11-22T04:29:32.957Z,17.73
2022-11-22T04:30:36.468Z,17.76
2022-11-22T04:31:49.131Z,17.75
2022-11-22T04:33:02.493Z,17.76
2022-11-22T04:34:15.246Z,17.75
2022-11-22T04:35:19.004Z,17.78
2022-11-22T04:36:31.720Z,17.73
2022-11-22T04:37:55.477Z,17.73
2022-11-22T04:38:48.248Z,17.73
2022-11-22T04:40:01.977Z,17.73
2022-11-22T04:41:14.740Z,17.75
2022-11-22T04:42:18.035Z,17.75
2022-11-22T04:43:30.679Z,17.73
2022-11-22T04:44:44.023Z,17.75
2022-11-22T04:45:56.693Z,17.75
2022-11-22T04:46:59.997Z,17.75
2022-11-22T04:48:12.693Z,17.71
2022-11-22T04:49:26.016Z,17.72
2022-11-22T04:50:28.746Z,17.71
2022-11-22T04:51:42.027Z,17.71
2022-11-22T04:52:54.795Z,17.72
2022-11-22T04:54:08.493Z,17.71
2022-11-22T04:55:11.205Z,17.73
2022-11-22T04:56:24.994Z,17.75
2022-11-22T04:57:37.666Z,17.72
2022-11-22T04:58:41.026Z,17.71
2022-11-22T04:59:53.688Z,17.69
2022-11-22T05:01:07.048Z,17.66
2022-11-22T05:02:09.809Z,17.66
2022-11-22T05:03:24.032Z,17.69
2022-11-22T05:04:36.723Z,17.68
2022-11-22T05:05:39.999Z,17.65
2022-11-22T05:06:52.669Z,17.66
2022-11-22T05:08:06.020Z,17.68
2022-11-22T05:09:08.816Z,17.66
2022-11-22T05:10:26.451Z,17.66
2022-11-22T05:11:29.698Z,17.65
2022-11-22T05:12:43.024Z,17.63
2022-11-22T05:13:55.712Z,17.66
2022-11-22T05:15:09.036Z,17.68
2022-11-22T05:16:11.786Z,17.65
2022-11-22T05:17:25.538Z,17.65
2022-11-22T05:18:38.234Z,17.65
2022-11-22T05:19:44.934Z,17.65
2022-11-22T05:20:50.642Z,17.66
2022-11-22T05:22:04.023Z,17.66
2022-11-22T05:23:16.694Z,17.63
2022-11-22T05:24:29.993Z,17.66
2022-11-22T05:25:32.705Z,17.63
2022-11-22T05:26:45.994Z,17.65
2022-11-22T05:27:58.673Z,17.66
2022-11-22T05:29:02.043Z,17.63
2022-11-22T05:30:14.715Z,17.65
2022-11-22T05:31:28.051Z,17.66
2022-11-22T05:32:30.863Z,17.63
2022-11-22T05:33:44.521Z,17.63
2022-11-22T05:34:57.185Z,17.66
2022-11-22T05:36:10.500Z,17.65
2022-11-22T05:37:13.019Z,17.61
2022-11-22T05:38:26.533Z,17.63
2022-11-22T05:39:39.214Z,17.62
2022-11-22T05:40:43.042Z,17.61
2022-11-22T05:41:55.830Z,17.62
2022-11-22T05:43:09.505Z,17.61
2022-11-22T05:44:12.233Z,17.61
2022-11-22T05:45:25.525Z,17.61
2022-11-22T05:46:38.193Z,17.62
2022-11-22T05:47:51.533Z,17.62
2022-11-22T05:49:14.204Z,17.62
2022-11-22T05:50:08.001Z,17.62
2022-11-22T05:51:20.679Z,17.61
2022-11-22T05:52:24.023Z,17.62
2022-11-22T05:53:36.667Z,17.61
2022-11-22T05:54:50.999Z,17.62
2022-11-22T05:55:53.708Z,17.61
2022-11-22T05:57:06.997Z,17.62
2022-11-22T05:58:19.796Z,17.62
2022-11-22T05:59:33.531Z,17.62
2022-11-22T06:00:36.270Z,17.63
2022-11-22T06:01:50.096Z,17.61
2022-11-22T06:03:02.837Z,17.62
2022-11-22T06:04:06.530Z,17.65
2022-11-22T06:05:19.202Z,17.61
2022-11-22T06:06:32.516Z,17.62
2022-11-22T06:07:35.315Z,17.62
2022-11-22T06:08:49.097Z,17.61
2022-11-22T06:10:01.926Z,17.62
2022-11-22T06:11:05.541Z,17.62
2022-11-22T06:12:18.224Z,17.63
2022-11-22T06:13:31.533Z,17.63
2022-11-22T06:14:44.216Z,17.63
2022-11-22T06:15:47.549Z,17.63
2022-11-22T06:17:00.213Z,17.63
2022-11-22T06:18:13.530Z,17.71
2022-11-22T06:19:16.202Z,17.75
2022-11-22T06:20:29.538Z,17.83
2022-11-22T06:21:42.086Z,17.86
2022-11-22T06:22:55.542Z,17.89
2022-11-22T06:23:58.148Z,17.92
2022-11-22T06:25:11.506Z,17.94
2022-11-22T06:26:24.074Z,17.93
2022-11-22T06:27:27.567Z,17.92
2022-11-22T06:28:40.101Z,17.9
2022-11-22T06:29:53.530Z,17.94
2022-11-22T06:31:06.115Z,17.96
2022-11-22T06:32:09.550Z,17.94
2022-11-22T06:33:22.066Z,17.94
2022-11-22T06:34:35.547Z,17.99
2022-11-22T06:35:38.141Z,18.06
2022-11-22T06:36:51.545Z,18.16
2022-11-22T06:38:04.046Z,18.24
2022-11-22T06:39:17.531Z,18.33
2022-11-22T06:40:20.082Z,18.41
2022-11-22T06:41:33.540Z,18.5
2022-11-22T06:42:46.084Z,18.6
2022-11-22T06:43:49.814Z,18.66
2022-11-22T06:45:22.362Z,18.74
2022-11-22T06:46:16.021Z,18.84
2022-11-22T06:47:18.529Z,18.91
2022-11-22T06:48:31.532Z,18.98
2022-11-22T06:49:43.940Z,19.08
2022-11-22T06:50:57.037Z,19.11
2022-11-22T06:51:59.509Z,19.17
2022-11-22T06:53:26.526Z,19.25
2022-11-22T06:54:18.325Z,19.29
2022-11-22T06:55:49.680Z,19.33
2022-11-22T06:56:43.267Z,19.4
2022-11-22T06:57:56.533Z,19.42
2022-11-22T06:58:58.978Z,19.47
2022-11-22T07:00:12.529Z,19.49
2022-11-22T07:02:42.197Z,19.59
2022-11-22T07:03:44.645Z,19.62
2022-11-22T07:05:24.141Z,19.64
2022-11-22T07:06:07.620Z,19.68
2022-11-22T07:07:10.071Z,19.74
2022-11-22T07:08:23.334Z,19.76
2022-11-22T07:09:56.728Z,19.78
2022-11-22T07:10:40.334Z,19.8
2022-11-22T07:11:52.649Z,19.86
2022-11-22T07:13:06.341Z,19.86
2022-11-22T07:14:09.513Z,19.91
2022-11-22T07:15:22.815Z,19.93
2022-11-22T07:16:35.277Z,19.94
2022-11-22T07:17:38.331Z,19.96
2022-11-22T07:18:50.638Z,19.96
2022-11-22T07:20:04.342Z,19.97
2022-11-22T07:21:16.652Z,20.0
2022-11-22T07:22:19.816Z,20.01
2022-11-22T07:23:32.168Z,20.03
2022-11-22T07:24:45.433Z,20.01
2022-11-22T07:25:48.027Z,20.06
2022-11-22T07:27:01.341Z,20.06
2022-11-22T07:28:13.642Z,20.04
2022-11-22T07:29:27.110Z,20.06
2022-11-22T07:30:29.904Z,20.07
2022-11-22T07:31:42.834Z,20.08
2022-11-22T07:32:55.189Z,20.08
2022-11-22T07:33:58.831Z,20.1
2022-11-22T07:35:11.146Z,20.1
2022-11-22T07:36:24.419Z,20.11
2022-11-22T07:37:36.730Z,20.11
2022-11-22T07:38:39.816Z,20.1
2022-11-22T07:39:52.106Z,20.11
2022-11-22T07:41:05.317Z,20.13
2022-11-22T07:42:07.700Z,20.11
2022-11-22T07:43:20.806Z,20.14
2022-11-22T07:44:33.094Z,20.15
2022-11-22T07:45:46.344Z,20.17
2022-11-22T07:46:48.772Z,20.15
2022-11-22T07:48:01.847Z,20.19
2022-11-22T07:49:14.111Z,20.19
2022-11-22T07:50:17.325Z,20.17
2022-11-22T07:51:29.697Z,20.19
2022-11-22T07:52:42.853Z,20.24
2022-11-22T07:53:55.148Z,20.22
2022-11-22T07:54:58.333Z,20.25
2022-11-22T07:56:10.603Z,20.28
2022-11-22T07:57:23.853Z,20.28
2022-11-22T07:58:26.245Z,20.29
2022-11-22T07:59:39.362Z,20.31
2022-11-22T08:00:51.630Z,20.35
2022-11-22T08:02:04.900Z,20.38
2022-11-22T08:03:07.365Z,20.39
2022-11-22T08:04:20.343Z,20.41
2022-11-22T08:05:32.622Z,20.44
2022-11-22T08:06:35.820Z,20.45
2022-11-22T08:07:48.273Z,20.49
2022-11-22T08:09:02.405Z,20.51
2022-11-22T08:10:04.946Z,20.52
2022-11-22T08:11:17.853Z,20.57
2022-11-22T08:12:30.107Z,20.58
2022-11-22T08:13:43.406Z,20.59
2022-11-22T08:14:46.841Z,20.61
2022-11-22T08:16:05.074Z,20.62
2022-11-22T08:17:08.129Z,20.65
2022-11-22T08:18:21.425Z,20.68
2022-11-22T08:19:33.925Z,20.7
2022-11-22T08:20:36.862Z,20.72
2022-11-22T08:21:51.628Z,20.76
2022-11-22T08:22:58.832Z,20.75
2022-11-22T08:24:11.036Z,20.79
2022-11-22T08:25:35.399Z,20.83
2022-11-22T08:26:27.831Z,20.86
2022-11-22T08:27:41.637Z,20.89
2022-11-22T08:28:54.058Z,20.89
2022-11-22T08:29:57.345Z,20.93
2022-11-22T08:31:09.837Z,20.96
2022-11-22T08:32:33.639Z,21.0
2022-11-22T08:33:26.170Z,21.0
2022-11-22T08:34:45.638Z,21.06
2022-11-22T08:35:51.375Z,21.09
2022-11-22T08:37:04.659Z,21.11
2022-11-22T08:38:06.976Z,21.16
2022-11-22T08:39:20.365Z,21.21
2022-11-22T08:40:36.694Z,21.23
2022-11-22T08:41:42.838Z,21.29
2022-11-22T08:42:45.137Z,21.3
2022-11-22T08:43:58.366Z,21.31
2022-11-22T08:45:10.521Z,21.36
2022-11-22T08:46:23.839Z,21.4
2022-11-22T08:47:26.126Z,21.4
2022-11-22T08:48:39.357Z,21.43
2022-11-22T08:49:51.592Z,21.43
2022-11-22T08:50:54.879Z,21.44
2022-11-22T08:52:07.111Z,21.43
2022-11-22T08:53:20.339Z,21.46
2022-11-22T08:54:37.467Z,21.44
2022-11-22T08:55:41.350Z,21.44
2022-11-22T08:56:43.624Z,21.46
2022-11-22T08:57:56.851Z,21.44
2022-11-22T08:59:09.126Z,21.43
2022-11-22T09:00:22.344Z,21.44
2022-11-22T09:01:24.730Z,21.46
2022-11-22T09:02:37.866Z,21.44
2022-11-22T09:03:50.095Z,21.44
2022-11-22T09:05:02.842Z,21.43
2022-11-22T09:08:34.230Z,21.4
2022-11-22T09:09:38.663Z,21.41
2022-11-22T09:10:51.878Z,21.41
2022-11-22T09:11:55.168Z,21.41
2022-11-22T09:13:08.380Z,21.41
2022-11-22T09:14:20.607Z,21.43
2022-11-22T09:15:23.876Z,21.43
2022-11-22T09:16:36.047Z,21.43
2022-11-22T09:17:48.893Z,21.43
2022-11-22T09:19:01.086Z,21.43
2022-11-22T09:20:04.377Z,21.43
2022-11-22T09:21:16.559Z,21.44
2022-11-22T09:22:29.435Z,21.44
2022-11-22T09:23:31.724Z,21.43
2022-11-22T09:24:44.887Z,21.44
2022-11-22T09:25:57.036Z,21.43
2022-11-22T09:27:09.883Z,21.46
2022-11-22T09:28:12.200Z,21.44
2022-11-22T09:29:25.341Z,21.44
2022-11-22T09:30:37.574Z,21.46
2022-11-22T09:31:50.327Z,21.44
2022-11-22T09:32:52.675Z,21.46
2022-11-22T09:34:05.877Z,21.44
2022-11-22T09:35:18.062Z,21.44
2022-11-22T09:36:30.875Z,21.43
2022-11-22T09:37:33.175Z,21.43
2022-11-22T09:38:46.341Z,21.46
2022-11-22T09:39:58.580Z,21.41
2022-11-22T09:41:01.848Z,21.44
2022-11-22T09:42:14.021Z,21.44
2022-11-22T09:43:26.886Z,21.44
2022-11-22T09:44:39.117Z,21.44
2022-11-22T09:45:42.348Z,21.46
2022-11-22T09:46:54.540Z,21.47
2022-11-22T09:48:09.901Z,21.44
2022-11-22T09:49:12.608Z,21.43
2022-11-22T09:50:25.887Z,21.44
2022-11-22T09:51:38.064Z,21.46
2022-11-22T09:52:41.401Z,21.46
2022-11-22T09:53:53.580Z,21.46
2022-11-22T09:55:06.369Z,21.44
2022-11-22T09:56:18.602Z,21.43
2022-11-22T09:57:21.983Z,21.46
2022-11-22T09:58:34.214Z,21.43
2022-11-22T09:59:47.429Z,21.43
2022-11-22T10:00:52.505Z,21.43
2022-11-22T10:02:17.650Z,21.44
2022-11-22T10:03:10.891Z,21.43
2022-11-22T10:04:23.872Z,21.43
2022-11-22T10:05:36.089Z,21.43
2022-11-22T10:06:48.875Z,21.41
2022-11-22T10:07:51.254Z,21.44
2022-11-22T10:09:04.384Z,21.41
2022-11-22T10:10:16.817Z,21.43
2022-11-22T10:11:19.894Z,21.43
2022-11-22T10:12:41.973Z,21.44
2022-11-22T10:13:44.860Z,21.47
2022-11-22T10:14:57.093Z,21.46
2022-11-22T10:16:00.394Z,21.44
2022-11-22T10:17:22.512Z,21.48
2022-11-22T10:18:25.914Z,21.47
2022-11-22T10:19:29.224Z,21.46
2022-11-22T10:20:45.804Z,21.47
2022-11-22T10:22:00.986Z,21.5
2022-11-22T10:23:03.897Z,21.47
2022-11-22T10:24:16.056Z,21.51
2022-11-22T10:25:20.040Z,21.53
2022-11-22T10:26:32.372Z,21.5
2022-11-22T10:27:45.406Z,21.53
2022-11-22T10:28:47.691Z,21.53
2022-11-22T10:30:00.899Z,21.55
2022-11-22T10:31:13.137Z,21.57
2022-11-22T10:32:25.909Z,21.54
2022-11-22T10:33:28.182Z,21.54
2022-11-22T10:34:41.400Z,21.57
2022-11-22T10:35:53.548Z,21.58
2022-11-22T10:36:56.378Z,21.55
2022-11-22T10:38:08.567Z,21.6
2022-11-22T10:39:21.397Z,21.58
2022-11-22T10:40:33.641Z,21.55
2022-11-22T10:41:36.907Z,21.58
2022-11-22T10:42:49.085Z,21.58
2022-11-22T10:44:02.388Z,21.55
2022-11-22T10:45:04.676Z,21.55
2022-11-22T10:46:17.381Z,21.57
2022-11-22T10:47:34.238Z,21.6
2022-11-22T10:48:37.930Z,21.57
2022-11-22T10:49:50.189Z,21.54
2022-11-22T10:51:02.930Z,21.57
2022-11-22T10:52:05.211Z,21.61
2022-11-22T10:53:17.891Z,21.57
2022-11-22T10:54:30.118Z,21.58
2022-11-22T10:55:42.888Z,21.58
2022-11-22T10:56:45.185Z,21.58
2022-11-22T10:57:58.405Z,21.58
2022-11-22T10:59:10.625Z,21.55
2022-11-22T11:00:13.918Z,21.6
2022-11-22T11:01:26.186Z,21.61
2022-11-22T11:02:39.398Z,21.58
2022-11-22T11:03:51.614Z,21.58
2022-11-22T11:04:54.899Z,21.58
2022-11-22T11:06:22.858Z,21.58
2022-11-22T11:07:13.186Z,21.6
2022-11-22T11:08:47.780Z,21.6
2022-11-22T11:10:09.662Z,21.61
2022-11-22T11:10:43.378Z,21.62
2022-11-22T11:11:55.580Z,21.65
2022-11-22T11:13:08.388Z,21.62
2022-11-22T11:14:10.701Z,21.64
2022-11-22T11:15:23.883Z,21.64
2022-11-22T11:16:36.136Z,21.64
2022-11-22T11:17:49.463Z,21.62
2022-11-22T11:18:51.851Z,21.61
2022-11-22T11:20:04.925Z,21.64
2022-11-22T11:21:27.127Z,21.6
2022-11-22T11:22:36.038Z,21.61
2022-11-22T11:23:36.961Z,21.65
2022-11-22T11:24:39.263Z,21.71
2022-11-22T11:25:52.468Z,21.72
2022-11-22T11:27:04.688Z,21.8
2022-11-22T11:28:17.886Z,21.8
2022-11-22T11:29:20.248Z,21.85
2022-11-22T11:30:33.415Z,21.88
2022-11-22T11:31:45.611Z,21.9
2022-11-22T11:32:58.423Z,21.92
2022-11-22T11:34:00.764Z,21.91
2022-11-22T11:35:13.914Z,21.92
2022-11-22T11:36:26.138Z,21.92
2022-11-22T11:37:29.417Z,21.91
2022-11-22T11:38:41.632Z,21.9
2022-11-22T11:39:54.382Z,21.88
2022-11-22T11:41:06.536Z,21.88
2022-11-22T11:42:09.414Z,21.88
2022-11-22T11:43:21.628Z,21.87
2022-11-22T11:44:34.390Z,21.82
2022-11-22T11:45:46.607Z,21.81
2022-11-22T11:46:50.017Z,21.81
2022-11-22T11:48:02.357Z,21.77
2022-11-22T11:49:15.418Z,21.78
2022-11-22T11:50:23.585Z,21.75
2022-11-22T11:51:27.386Z,21.72
2022-11-22T11:52:39.611Z,21.68
2022-11-22T11:53:52.435Z,21.67
2022-11-22T11:55:04.601Z,21.62
2022-11-22T11:56:21.843Z,21.65
2022-11-22T11:57:24.122Z,21.62
2022-11-22T11:58:27.452Z,21.61
2022-11-22T11:59:39.610Z,21.58
2022-11-22T12:00:52.420Z,21.57
2022-11-22T12:01:55.258Z,21.57
2022-11-22T12:03:08.404Z,21.54
2022-11-22T12:04:20.642Z,21.53
2022-11-22T12:05:33.897Z,21.5
2022-11-22T12:06:36.217Z,21.51
2022-11-22T12:07:49.466Z,21.47
2022-11-22T12:09:01.794Z,21.48
2022-11-22T12:10:04.887Z,21.46
2022-11-22T12:11:17.065Z,21.47
2022-11-22T12:12:29.921Z,21.43
2022-11-22T12:14:04.783Z,21.41
2022-11-22T12:15:09.711Z,21.43
2022-11-22T12:15:53.688Z,21.39
2022-11-22T12:17:05.872Z,21.4
2022-11-22T12:18:18.918Z,21.41
2022-11-22T12:19:31.112Z,21.39
2022-11-22T12:20:34.437Z,21.39
2022-11-22T12:21:46.614Z,21.36
2022-11-22T12:22:59.405Z,21.36
2022-11-22T12:24:34.899Z,21.36
2022-11-22T12:25:32.053Z,21.34
2022-11-22T12:26:36.513Z,21.37
2022-11-22T12:27:38.800Z,21.36
2022-11-22T12:28:51.590Z,21.36
2022-11-22T12:29:53.907Z,21.36
2022-11-22T12:31:11.977Z,21.36
2022-11-22T12:32:16.082Z,21.34
2022-11-22T12:33:29.096Z,21.31
2022-11-22T12:34:41.269Z,21.31
2022-11-22T12:35:44.588Z,21.3
2022-11-22T12:36:56.800Z,21.3
2022-11-22T12:38:09.653Z,21.26
2022-11-22T12:39:12.039Z,21.24
2022-11-22T12:40:25.106Z,21.26
2022-11-22T12:41:37.377Z,21.26
2022-11-22T12:42:50.582Z,21.21
2022-11-22T12:43:52.924Z,21.24
2022-11-22T12:45:06.106Z,21.23
2022-11-22T12:46:18.330Z,21.2
2022-11-22T12:47:31.619Z,21.19
2022-11-22T12:48:33.969Z,21.2
2022-11-22T12:49:47.621Z,21.2
2022-11-22T12:50:59.830Z,21.2
2022-11-22T12:52:03.108Z,21.19
2022-11-22T12:53:15.326Z,21.2
2022-11-22T12:54:28.933Z,21.23
2022-11-22T12:55:31.981Z,21.24
2022-11-22T12:56:45.104Z,21.24
2022-11-22T12:57:57.364Z,21.26
2022-11-22T12:59:10.633Z,21.26
2022-11-22T13:00:13.050Z,21.29
2022-11-22T13:01:26.175Z,21.29
2022-11-22T13:02:38.571Z,21.29
2022-11-22T13:03:41.609Z,21.29
2022-11-22T13:04:53.814Z,21.33
2022-11-22T13:06:06.669Z,21.36
2022-11-22T13:07:18.922Z,21.34
2022-11-22T13:08:22.092Z,21.34
2022-11-22T13:09:34.283Z,21.34
2022-11-22T13:10:47.085Z,21.36
2022-11-22T13:11:59.509Z,21.37
2022-11-22T13:13:02.619Z,21.37
2022-11-22T13:14:19.500Z,21.39
2022-11-22T13:15:24.135Z,21.39
2022-11-22T13:16:36.299Z,21.4
2022-11-22T13:17:49.099Z,21.4
2022-11-22T13:18:51.400Z,21.41
2022-11-22T13:20:05.107Z,21.4
2022-11-22T13:21:17.317Z,21.41
2022-11-22T13:22:30.087Z,21.41
2022-11-22T13:23:32.467Z,21.41
2022-11-22T13:24:45.626Z,21.41
2022-11-22T13:25:57.827Z,21.41
2022-11-22T13:27:01.122Z,21.41
2022-11-22T13:28:13.383Z,21.43
2022-11-22T13:29:26.630Z,21.41
2022-11-22T13:30:38.818Z,21.43
2022-11-22T13:31:42.111Z,21.44
2022-11-22T13:32:54.277Z,21.41
2022-11-22T13:34:07.114Z,21.44
2022-11-22T13:35:09.404Z,21.43
2022-11-22T13:36:22.109Z,21.4
2022-11-22T13:37:34.355Z,21.41
2022-11-22T13:38:47.604Z,21.41
2022-11-22T13:39:50.011Z,21.43
2022-11-22T13:41:03.134Z,21.43
2022-11-22T13:42:15.328Z,21.43
2022-11-22T13:43:28.110Z,21.43
2022-11-22T13:44:30.739Z,21.44
2022-11-22T13:45:44.093Z,21.43
2022-11-22T13:46:56.290Z,21.43
2022-11-22T13:48:19.138Z,21.43
2022-11-22T13:49:36.934Z,21.43
2022-11-22T13:50:21.683Z,21.44
2022-11-22T13:51:34.105Z,21.48
2022-11-22T13:52:47.617Z,21.47
2022-11-22T13:53:50.092Z,21.5
2022-11-22T13:55:03.142Z,21.5
2022-11-22T13:56:15.298Z,21.51
2022-11-22T13:57:28.630Z,21.5
2022-11-22T13:58:30.921Z,21.48
2022-11-22T13:59:44.295Z,21.5
2022-11-22T14:00:56.664Z,21.51
2022-11-22T14:02:00.168Z,21.51
2022-11-22T14:03:12.396Z,21.5
2022-11-22T14:04:45.154Z,21.53
2022-11-22T14:05:41.755Z,21.53
2022-11-22T14:06:44.632Z,21.53
2022-11-22T14:07:57.707Z,21.53
2022-11-22T14:09:00.119Z,21.54
2022-11-22T14:10:13.220Z,21.55
2022-11-22T14:11:25.476Z,21.54
2022-11-22T14:12:28.643Z,21.54
2022-11-22T14:13:41.005Z,21.55
2022-11-22T14:14:54.128Z,21.53
2022-11-22T14:16:06.348Z,21.54
2022-11-22T14:17:09.635Z,21.54
2022-11-22T14:18:21.996Z,21.54
2022-11-22T14:19:35.158Z,21.54
2022-11-22T14:20:37.493Z,21.54
2022-11-22T14:21:50.646Z,21.54
2022-11-22T14:23:02.880Z,21.53
2022-11-22T14:24:15.653Z,21.55
2022-11-22T14:25:18.023Z,21.55
2022-11-22T14:26:31.182Z,21.57
2022-11-22T14:27:43.435Z,21.54
2022-11-22T14:28:56.675Z,21.53
2022-11-22T14:29:59.052Z,21.54
2022-11-22T14:31:12.179Z,21.55
2022-11-22T14:32:24.381Z,21.53
2022-11-22T14:33:27.681Z,21.55
2022-11-22T14:34:39.839Z,21.55
2022-11-22T14:35:52.684Z,21.54
2022-11-22T14:37:04.927Z,21.54
2022-11-22T14:38:08.177Z,21.54
2022-11-22T14:39:20.400Z,21.57
2022-11-22T14:40:33.625Z,21.55
2022-11-22T14:41:35.977Z,21.54
2022-11-22T14:42:49.164Z,21.53
2022-11-22T14:44:01.320Z,21.58
2022-11-22T14:45:18.653Z,21.57
2022-11-22T14:46:51.726Z,21.55
2022-11-22T14:47:36.167Z,21.57
2022-11-22T14:48:38.514Z,21.6
2022-11-22T14:49:52.165Z,21.62
2022-11-22T14:51:04.379Z,21.61
2022-11-22T14:52:07.668Z,21.6
2022-11-22T14:53:19.892Z,21.61
2022-11-22T14:54:32.681Z,21.61
2022-11-22T14:55:44.912Z,21.61
2022-11-22T14:56:48.173Z,21.58
2022-11-22T14:58:00.349Z,21.61
2022-11-22T14:59:13.172Z,21.58
2022-11-22T15:00:15.441Z,21.58
2022-11-22T15:01:28.693Z,21.58
2022-11-22T15:02:41.282Z,21.53
2022-11-22T15:09:12.532Z,21.54
2022-11-22T15:09:15.368Z,21.54
2022-11-22T15:09:16.475Z,21.55
2022-11-22T15:09:21.750Z,21.55
2022-11-22T15:09:21.957Z,21.55